Time;durP1;ratioP1;P1;durP2;ratioP2;P2;SDS_P1;SDS_P2;PMS_P1;PMS_P2;Temp;Humidity;BMP_temperature;BMP_pressure;BME280_temperature;BME280_humidity;BME280_pressure;Samples;Min_cycle;Max_cycle;Signal;HPM_P1;HPM_P2
2023/09/28 00:00:49;;;;;;;11.20;10.00;;;18.10;76.20;;;;;;5068703;28;20417;-64
2023/09/28 00:03:15;;;;;;;11.52;10.13;;;18.10;76.30;;;;;;5068149;28;20040;-65
2023/09/28 00:05:41;;;;;;;10.82;9.73;;;18.10;76.30;;;;;;5078404;28;20044;-64
2023/09/28 00:08:07;;;;;;;10.82;9.70;;;18.10;76.20;;;;;;5070582;28;20052;-63
2023/09/28 00:10:33;;;;;;;12.23;9.68;;;18.10;76.30;;;;;;5084412;28;20060;-64
2023/09/28 00:12:59;;;;;;;13.52;9.18;;;18.00;76.40;;;;;;5083422;28;20405;-63
2023/09/28 00:15:25;;;;;;;12.88;10.13;;;18.00;76.40;;;;;;5088605;28;20047;-64
2023/09/28 00:17:51;;;;;;;11.52;9.63;;;18.00;76.50;;;;;;5084709;28;20060;-64
2023/09/28 00:20:19;;;;;;;12.63;9.68;;;18.00;76.50;;;;;;5067769;28;20505;-63
2023/09/28 00:22:49;;;;;;;19.02;10.25;;;18.00;76.60;;;;;;5068594;28;20041;-64
2023/09/28 00:25:16;;;;;;;11.93;8.95;;;18.00;76.60;;;;;;5068603;28;20048;-64
2023/09/28 00:27:47;;;;;;;14.98;9.93;;;17.90;76.60;;;;;;5068289;28;20459;-64
2023/09/28 00:30:20;;;;;;;11.75;9.95;;;17.80;76.70;;;;;;5068520;28;20056;-64
2023/09/28 00:32:50;;;;;;;10.90;9.80;;;17.80;76.70;;;;;;5072710;28;20044;-64
2023/09/28 00:35:17;;;;;;;11.50;10.37;;;17.80;76.70;;;;;;5077635;28;20166;-64
2023/09/28 00:37:43;;;;;;;12.35;9.80;;;17.80;76.80;;;;;;5068559;28;20373;-63
2023/09/28 00:40:21;;;;;;;12.13;9.63;;;17.80;76.80;;;;;;5068968;28;20040;-64
2023/09/28 00:42:49;;;;;;;11.32;9.35;;;17.80;76.90;;;;;;5080832;28;20082;-64
2023/09/28 00:45:15;;;;;;;14.07;10.18;;;17.80;76.90;;;;;;5072138;28;20055;-64
2023/09/28 00:47:42;;;;;;;10.38;9.38;;;17.80;76.90;;;;;;5088786;28;20401;-64
2023/09/28 00:50:14;;;;;;;11.30;9.32;;;17.80;76.90;;;;;;5087996;28;20079;-64
2023/09/28 00:52:46;;;;;;;10.80;9.63;;;17.80;76.70;;;;;;5086714;28;20051;-64
2023/09/28 00:55:15;;;;;;;12.20;9.02;;;17.80;76.60;;;;;;5072263;28;20051;-64
2023/09/28 00:57:44;;;;;;;10.15;9.15;;;17.80;76.60;;;;;;5088144;28;20047;-64
2023/09/28 01:00:26;;;;;;;13.02;8.13;;;17.80;76.60;;;;;;5071290;28;20106;-64
2023/09/28 01:02:52;;;;;;;;;;;17.80;76.50;;;;;;5081649;28;20060;-64
2023/09/28 01:05:19;;;;;;;11.30;8.60;;;17.80;76.40;;;;;;5088295;28;20304;-64
2023/09/28 01:07:44;;;;;;;13.57;8.63;;;17.80;76.50;;;;;;5073636;28;20056;-64
2023/09/28 01:10:14;;;;;;;9.23;7.40;;;17.80;76.40;;;;;;5080767;28;20048;-64
2023/09/28 01:12:39;;;;;;;9.73;7.85;;;17.80;76.20;;;;;;5080006;28;20105;-64
2023/09/28 01:15:10;;;;;;;9.23;7.57;;;17.80;76.20;;;;;;5073093;28;20044;-64
2023/09/28 01:17:40;;;;;;;10.05;7.78;;;17.80;76.10;;;;;;5082047;28;20045;-64
2023/09/28 01:20:18;;;;;;;10.43;8.00;;;17.80;76.10;;;;;;5088668;28;20051;-64
2023/09/28 01:22:50;;;;;;;10.35;8.05;;;17.80;76.00;;;;;;5088949;28;20071;-64
2023/09/28 01:25:18;;;;;;;9.52;7.18;;;17.80;76.10;;;;;;5079331;28;20044;-64
2023/09/28 01:27:46;;;;;;;10.82;8.00;;;17.80;76.00;;;;;;5075976;28;20059;-64
2023/09/28 01:30:13;;;;;;;11.13;7.95;;;17.80;76.10;;;;;;5076088;28;20044;-64
2023/09/28 01:32:39;;;;;;;9.00;7.45;;;17.80;76.20;;;;;;5078325;28;20109;-63
2023/09/28 01:35:06;;;;;;;12.43;8.00;;;17.80;76.20;;;;;;5081725;28;20673;-64
2023/09/28 01:37:55;;;;;;;10.65;7.32;;;17.80;76.20;;;;;;5087812;28;20411;-64
2023/09/28 01:40:20;;;;;;;8.25;6.95;;;17.80;76.20;;;;;;5076912;28;20040;-64
2023/09/28 01:42:46;;;;;;;8.90;7.40;;;17.60;76.40;;;;;;5085887;28;20459;-64
2023/09/28 01:45:12;;;;;;;8.75;7.40;;;17.60;76.50;;;;;;5074776;28;20142;-65
2023/09/28 01:47:38;;;;;;;9.52;7.68;;;17.60;76.50;;;;;;5071523;28;20071;-64
2023/09/28 01:50:04;;;;;;;10.02;7.40;;;17.60;76.50;;;;;;5071973;28;20496;-64
2023/09/28 01:52:30;;;;;;;12.00;7.15;;;17.60;76.60;;;;;;5078712;28;20118;-64
2023/09/28 01:54:56;;;;;;;11.68;7.18;;;17.50;76.60;;;;;;5078371;28;20123;-64
2023/09/28 01:57:21;;;;;;;10.48;7.25;;;17.50;76.70;;;;;;5084244;28;20489;-64
2023/09/28 01:59:47;;;;;;;8.18;7.30;;;17.40;76.80;;;;;;5084385;28;20090;-64
2023/09/28 02:02:15;;;;;;;9.02;7.18;;;17.40;76.90;;;;;;5071496;28;20471;-64
2023/09/28 02:04:41;;;;;;;10.35;7.40;;;17.40;76.80;;;;;;5086713;28;20091;-64
2023/09/28 02:07:07;;;;;;;9.25;6.57;;;17.40;76.90;;;;;;5091558;28;20039;-65
2023/09/28 02:09:33;;;;;;;11.88;7.20;;;17.30;76.90;;;;;;5082994;28;20097;-66
2023/09/28 02:12:00;;;;;;;8.25;7.10;;;17.30;76.90;;;;;;5077878;28;20044;-64
2023/09/28 02:14:26;;;;;;;10.35;7.05;;;17.20;77.00;;;;;;5089289;28;20052;-63
2023/09/28 02:16:52;;;;;;;9.30;7.07;;;17.20;77.10;;;;;;5088304;28;20105;-64
2023/09/28 02:19:18;;;;;;;9.23;7.28;;;17.20;77.00;;;;;;5090752;28;20387;-64
2023/09/28 02:21:44;;;;;;;10.10;7.28;;;17.20;77.00;;;;;;5090804;28;20066;-64
2023/09/28 02:24:10;;;;;;;9.65;7.45;;;17.20;77.00;;;;;;5086920;28;20079;-65
2023/09/28 02:26:35;;;;;;;9.43;7.38;;;17.20;77.00;;;;;;5086647;28;20101;-65
2023/09/28 02:29:02;;;;;;;9.05;7.22;;;17.20;77.00;;;;;;5085769;28;20036;-64
2023/09/28 02:31:28;;;;;;;9.88;7.20;;;17.20;77.00;;;;;;5079748;28;20303;-64
2023/09/28 02:33:54;;;;;;;8.70;7.38;;;17.20;77.10;;;;;;5089800;28;20070;-64
2023/09/28 02:36:20;;;;;;;9.65;8.20;;;17.20;77.10;;;;;;5078597;28;20040;-64
2023/09/28 02:38:47;;;;;;;10.07;7.88;;;17.20;77.20;;;;;;5078723;28;20040;-64
2023/09/28 02:41:20;;;;;;;10.10;7.15;;;17.00;77.30;;;;;;5081631;28;20047;-65
2023/09/28 02:43:46;;;;;;;11.10;8.25;;;17.00;77.30;;;;;;5090408;28;20044;-64
2023/09/28 02:46:13;;;;;;;9.32;7.25;;;17.00;77.50;;;;;;5087626;28;20052;-64
2023/09/28 02:48:39;;;;;;;13.45;8.43;;;16.90;77.60;;;;;;5075777;28;20036;-64
2023/09/28 02:51:10;;;;;;;12.00;8.35;;;16.90;77.70;;;;;;5070126;28;20051;-63
2023/09/28 02:53:36;;;;;;;;;;;16.80;77.90;;;;;;5074016;28;20067;-64
2023/09/28 02:56:03;;;;;;;9.43;8.20;;;16.80;78.30;;;;;;5069675;28;19920;-63
2023/09/28 02:58:29;;;;;;;9.52;7.72;;;16.80;78.10;;;;;;5076755;28;20504;-64
2023/09/28 03:00:56;;;;;;;8.80;7.82;;;16.70;78.20;;;;;;5090581;28;20104;-64
2023/09/28 03:03:23;;;;;;;11.32;8.23;;;16.70;78.40;;;;;;5087693;28;20492;-64
2023/09/28 03:05:54;;;;;;;11.52;8.55;;;16.60;78.40;;;;;;5089985;28;20447;-64
2023/09/28 03:08:20;;;;;;;12.30;8.98;;;16.60;78.70;;;;;;5090352;28;20420;-64
2023/09/28 03:10:46;;;;;;;12.40;8.65;;;16.60;78.80;;;;;;5075504;28;20434;-64
2023/09/28 03:13:13;;;;;;;10.15;8.48;;;16.50;78.90;;;;;;5082754;28;20493;-64
2023/09/28 03:15:41;;;;;;;12.68;8.70;;;16.50;79.00;;;;;;5090003;28;20048;-64
2023/09/28 03:18:07;;;;;;;11.75;8.52;;;16.40;79.10;;;;;;5089689;28;20384;-64
2023/09/28 03:20:33;;;;;;;14.07;9.10;;;16.40;79.20;;;;;;5086299;28;20047;-63
2023/09/28 03:22:58;;;;;;;10.68;8.43;;;16.40;79.30;;;;;;5076627;28;20506;-64
2023/09/28 03:25:24;;;;;;;11.05;8.52;;;16.40;79.30;;;;;;5078605;28;20097;-64
2023/09/28 03:27:54;;;;;;;10.52;9.43;;;16.40;79.50;;;;;;5074132;28;20048;-64
2023/09/28 03:30:24;;;;;;;14.05;8.77;;;16.40;79.60;;;;;;5072846;28;20465;-64
2023/09/28 03:32:50;;;;;;;11.13;9.38;;;16.40;79.70;;;;;;5088534;28;20145;-63
2023/09/28 03:35:18;;;;;;;13.27;9.43;;;16.40;79.70;;;;;;5077477;28;20137;-64
2023/09/28 03:37:46;;;;;;;16.27;9.27;;;16.40;79.80;;;;;;5069012;28;20044;-64
2023/09/28 03:40:12;;;;;;;16.60;9.50;;;16.30;79.80;;;;;;5069347;28;20070;-64
2023/09/28 03:42:39;;;;;;;13.20;8.93;;;16.30;79.90;;;;;;5080134;28;20221;-64
2023/09/28 03:45:08;;;;;;;12.40;9.05;;;16.30;80.00;;;;;;5088788;28;20070;-64
2023/09/28 03:47:38;;;;;;;11.88;9.50;;;16.30;80.20;;;;;;5075499;28;20055;-64
2023/09/28 03:50:13;;;;;;;10.13;9.10;;;16.20;80.30;;;;;;5083265;28;20074;-64
2023/09/28 03:52:40;;;;;;;11.55;8.95;;;16.20;80.40;;;;;;5088778;28;20735;-64
2023/09/28 03:55:19;;;;;;;16.63;9.77;;;16.20;80.50;;;;;;5088729;28;20100;-64
2023/09/28 03:57:45;;;;;;;15.20;10.20;;;16.20;80.60;;;;;;5089561;28;20040;-64
2023/09/28 04:00:14;;;;;;;12.85;9.63;;;16.20;80.70;;;;;;5077207;28;20162;-64
2023/09/28 04:02:51;;;;;;;13.07;9.65;;;16.20;80.70;;;;;;5083310;28;20413;-64
2023/09/28 04:05:16;;;;;;;10.50;8.80;;;16.30;80.70;;;;;;5089279;28;20044;-64
2023/09/28 04:07:43;;;;;;;13.95;9.85;;;16.20;80.70;;;;;;5073752;28;20044;-63
2023/09/28 04:10:09;;;;;;;18.65;9.73;;;16.20;80.80;;;;;;5075426;28;20041;-65
2023/09/28 04:12:35;;;;;;;13.18;10.02;;;16.20;80.80;;;;;;5074596;28;20504;-63
2023/09/28 04:15:02;;;;;;;14.02;9.40;;;16.20;80.80;;;;;;5083658;28;20040;-65
2023/09/28 04:17:28;;;;;;;12.23;10.15;;;16.20;80.70;;;;;;5076345;28;20090;-63
2023/09/28 04:19:53;;;;;;;11.73;9.77;;;16.20;80.80;;;;;;5070477;28;20319;-64
2023/09/28 04:22:19;;;;;;;16.30;10.23;;;16.10;80.90;;;;;;5074147;28;20597;-64
2023/09/28 04:24:45;;;;;;;14.38;10.57;;;16.10;81.00;;;;;;5076868;28;20036;-64
2023/09/28 04:27:11;;;;;;;15.82;10.43;;;16.00;81.00;;;;;;5083001;28;20397;-64
2023/09/28 04:29:37;;;;;;;15.07;10.25;;;16.00;81.10;;;;;;5072203;28;20463;-64
2023/09/28 04:32:03;;;;;;;14.10;9.50;;;16.00;81.20;;;;;;5075522;28;20052;-64
2023/09/28 04:34:29;;;;;;;13.25;10.25;;;16.00;81.20;;;;;;5079971;28;20427;-63
2023/09/28 04:36:57;;;;;;;16.23;9.95;;;15.90;81.40;;;;;;5083128;28;20051;-64
2023/09/28 04:39:24;;;;;;;15.18;9.93;;;15.90;81.60;;;;;;5072923;28;20400;-64
2023/09/28 04:41:53;;;;;;;14.02;10.15;;;15.90;81.60;;;;;;5082139;28;20133;-64
2023/09/28 04:44:19;;;;;;;14.75;10.23;;;15.80;81.70;;;;;;5084487;28;20063;-65
2023/09/28 04:46:45;;;;;;;13.77;9.90;;;15.80;81.80;;;;;;5074978;28;20091;-63
2023/09/28 04:49:11;;;;;;;15.07;10.10;;;15.80;81.90;;;;;;5088439;28;20044;-64
2023/09/28 04:51:37;;;;;;;15.63;10.23;;;15.80;82.00;;;;;;5088183;28;20091;-64
2023/09/28 04:54:04;;;;;;;13.63;10.25;;;15.80;82.10;;;;;;5082094;28;20047;-64
2023/09/28 04:56:31;;;;;;;13.70;9.57;;;15.80;82.30;;;;;;5070793;28;20053;-64
2023/09/28 04:58:59;;;;;;;14.85;9.93;;;15.80;82.20;;;;;;5068079;28;20051;-65
2023/09/28 05:01:25;;;;;;;17.48;10.65;;;15.80;82.10;;;;;;5068264;28;20068;-64
2023/09/28 05:03:51;;;;;;;11.88;9.63;;;15.80;82.10;;;;;;5068238;28;20044;-64
2023/09/28 05:06:16;;;;;;;13.60;9.52;;;15.80;82.20;;;;;;5068218;28;20049;-64
2023/09/28 05:08:43;;;;;;;13.85;8.88;;;15.80;82.30;;;;;;5068904;28;20572;-66
2023/09/28 05:11:09;;;;;;;13.38;8.45;;;15.80;82.50;;;;;;5078247;28;20040;-64
2023/09/28 05:13:36;;;;;;;15.32;8.60;;;15.80;82.60;;;;;;5081999;28;20067;-64
2023/09/28 05:16:02;;;;;;;13.77;7.53;;;15.90;82.50;;;;;;5086543;28;20047;-64
2023/09/28 05:18:27;;;;;;;12.65;7.35;;;16.00;82.40;;;;;;5076269;28;20562;-64
2023/09/28 05:20:53;;;;;;;13.73;8.02;;;16.00;82.20;;;;;;5087367;28;20171;-64
2023/09/28 05:23:19;;;;;;;17.48;8.05;;;16.00;82.10;;;;;;5087395;28;20036;-64
2023/09/28 05:25:44;;;;;;;14.45;8.13;;;16.10;82.00;;;;;;5085877;28;20437;-64
2023/09/28 05:28:10;;;;;;;15.43;8.85;;;16.00;82.10;;;;;;5076636;28;20045;-64
2023/09/28 05:30:36;;;;;;;17.65;8.68;;;16.00;82.00;;;;;;5081080;28;20044;-64
2023/09/28 05:33:02;;;;;;;16.02;7.70;;;16.00;82.00;;;;;;5076505;28;20046;-64
2023/09/28 05:35:29;;;;;;;14.10;7.65;;;16.00;82.10;;;;;;5074305;28;20084;-63
2023/09/28 05:37:55;;;;;;;15.93;7.00;;;16.00;82.00;;;;;;5087713;28;20427;-64
2023/09/28 05:40:21;;;;;;;15.70;7.47;;;16.00;82.00;;;;;;5078069;28;20047;-64
2023/09/28 05:42:48;;;;;;;17.60;7.22;;;15.90;81.90;;;;;;5087484;28;20044;-63
2023/09/28 05:45:15;;;;;;;13.75;6.72;;;15.90;81.90;;;;;;5087083;28;20059;-63
2023/09/28 05:47:40;;;;;;;17.88;6.75;;;15.90;81.90;;;;;;5067896;28;20059;-65
2023/09/28 05:50:11;;;;;;;15.68;6.55;;;15.80;81.90;;;;;;5067744;28;20048;-64
2023/09/28 05:52:37;;;;;;;15.57;6.20;;;15.80;81.80;;;;;;5076044;28;20075;-64
2023/09/28 05:55:02;;;;;;;20.73;6.90;;;15.80;81.90;;;;;;5089160;28;20040;-64
2023/09/28 05:57:28;;;;;;;17.60;7.38;;;15.80;81.80;;;;;;5090222;28;20047;-64
2023/09/28 05:59:54;;;;;;;15.93;6.32;;;15.80;81.90;;;;;;5091402;28;20043;-64
2023/09/28 06:02:20;;;;;;;17.40;5.82;;;15.80;81.80;;;;;;5082798;28;20054;-64
2023/09/28 06:04:46;;;;;;;23.52;6.50;;;15.70;81.90;;;;;;5071695;28;20109;-65
2023/09/28 06:07:12;;;;;;;16.77;6.28;;;15.70;81.80;;;;;;5070151;28;20048;-64
2023/09/28 06:09:38;;;;;;;25.75;5.97;;;15.70;81.80;;;;;;5078722;28;20054;-65
2023/09/28 06:12:05;;;;;;;20.67;6.03;;;15.80;81.70;;;;;;5083760;28;20119;-66
2023/09/28 06:14:30;;;;;;;23.48;5.78;;;15.80;81.50;;;;;;5075513;28;20136;-65
2023/09/28 06:16:56;;;;;;;28.60;5.70;;;15.80;81.40;;;;;;5071185;28;20473;-65
2023/09/28 06:19:22;;;;;;;23.88;5.70;;;15.80;81.20;;;;;;5077111;28;20051;-65
2023/09/28 06:21:47;;;;;;;33.33;6.75;;;15.80;81.10;;;;;;5082866;28;20091;-64
2023/09/28 06:24:13;;;;;;;28.35;6.30;;;15.80;80.90;;;;;;5088865;28;20044;-64
2023/09/28 06:26:39;;;;;;;28.90;6.38;;;15.80;80.80;;;;;;5090335;28;20093;-65
2023/09/28 06:29:05;;;;;;;29.10;6.07;;;15.80;80.70;;;;;;5090045;28;20079;-65
2023/09/28 06:31:30;;;;;;;28.05;6.10;;;15.80;80.70;;;;;;5090990;28;20094;-65
2023/09/28 06:33:56;;;;;;;37.90;6.72;;;15.80;80.50;;;;;;5089553;28;20381;-65
2023/09/28 06:36:25;;;;;;;26.85;6.95;;;15.80;80.60;;;;;;5070743;28;20072;-65
2023/09/28 06:38:51;;;;;;;30.58;6.32;;;15.70;80.50;;;;;;5069932;28;20044;-65
2023/09/28 06:41:17;;;;;;;28.90;5.82;;;15.70;80.70;;;;;;5081520;28;20335;-65
2023/09/28 06:43:43;;;;;;;26.10;5.90;;;15.70;80.70;;;;;;5090929;28;20074;-65
2023/09/28 06:46:08;;;;;;;31.73;6.32;;;15.60;80.60;;;;;;5081472;28;20053;-65
2023/09/28 06:48:35;;;;;;;28.85;5.93;;;15.70;80.60;;;;;;5070535;28;20045;-65
2023/09/28 06:51:01;;;;;;;34.00;6.38;;;15.70;80.70;;;;;;5078353;28;20044;-65
2023/09/28 06:53:27;;;;;;;30.13;6.38;;;15.70;80.50;;;;;;5090356;28;20074;-65
2023/09/28 06:55:54;;;;;;;31.13;6.43;;;15.80;80.40;;;;;;5085283;28;20476;-66
2023/09/28 06:58:20;;;;;;;28.75;6.22;;;15.80;80.20;;;;;;5070637;28;20047;-65
2023/09/28 07:00:46;;;;;;;35.83;6.70;;;15.80;80.10;;;;;;5079250;28;20094;-65
2023/09/28 07:03:13;;;;;;;31.95;7.15;;;15.80;80.00;;;;;;5073093;28;20181;-65
2023/09/28 07:05:39;;;;;;;39.72;6.88;;;16.00;79.90;;;;;;5070050;28;20473;-65
2023/09/28 07:08:05;;;;;;;33.63;6.28;;;16.00;79.80;;;;;;5068835;28;20083;-65
2023/09/28 07:10:35;;;;;;;33.80;6.03;;;16.00;79.60;;;;;;5076531;28;20048;-65
2023/09/28 07:13:03;;;;;;;29.33;6.10;;;16.10;79.50;;;;;;5076068;28;20118;-65
2023/09/28 07:15:30;;;;;;;31.30;6.45;;;16.20;79.40;;;;;;5075064;28;20086;-65
2023/09/28 07:17:56;;;;;;;33.20;6.93;;;16.20;79.10;;;;;;5090076;28;20236;-65
2023/09/28 07:20:22;;;;;;;32.78;6.32;;;16.20;79.00;;;;;;5077971;28;20409;-65
2023/09/28 07:22:49;;;;;;;30.67;6.28;;;16.30;78.90;;;;;;5086958;28;20496;-66
2023/09/28 07:25:15;;;;;;;31.80;6.15;;;16.40;79.00;;;;;;5090005;28;20123;-66
2023/09/28 07:27:45;;;;;;;33.42;6.45;;;16.40;79.00;;;;;;5089618;28;20152;-66
2023/09/28 07:30:11;;;;;;;35.08;7.18;;;16.40;78.60;;;;;;5089636;28;20043;-65
2023/09/28 07:32:40;;;;;;;31.27;6.35;;;16.40;78.70;;;;;;5082723;28;20124;-65
2023/09/28 07:35:09;;;;;;;33.10;6.82;;;16.50;78.60;;;;;;5089481;28;20551;-65
2023/09/28 07:37:35;;;;;;;33.08;7.35;;;16.50;78.50;;;;;;5072233;28;20052;-66
2023/09/28 07:40:02;;;;;;;32.53;7.22;;;16.50;78.50;;;;;;5071679;28;20044;-65
2023/09/28 07:42:28;;;;;;;31.15;6.35;;;16.60;78.30;;;;;;5089551;28;20150;-66
2023/09/28 07:44:54;;;;;;;31.00;6.43;;;16.60;78.50;;;;;;5078805;28;20060;-66
2023/09/28 07:47:20;;;;;;;29.48;6.80;;;16.60;78.60;;;;;;5073784;28;20136;-65
2023/09/28 07:49:46;;;;;;;32.55;7.25;;;16.70;78.60;;;;;;5089550;28;20297;-66
2023/09/28 07:52:12;;;;;;;37.17;7.63;;;16.70;78.80;;;;;;5089386;28;20285;-66
2023/09/28 07:54:37;;;;;;;29.58;7.53;;;16.80;78.70;;;;;;5089039;28;20382;-67
2023/09/28 07:57:04;;;;;;;28.90;6.43;;;16.80;78.70;;;;;;5089143;28;20046;-66
2023/09/28 07:59:34;;;;;;;35.17;7.50;;;16.80;78.50;;;;;;5088389;28;20036;-65
2023/09/28 08:02:04;;;;;;;34.15;7.18;;;16.90;78.60;;;;;;5088103;28;20412;-66
2023/09/28 08:04:30;;;;;;;29.67;6.60;;;16.90;78.50;;;;;;5077809;28;20540;-65
2023/09/28 08:06:57;;;;;;;33.63;6.97;;;17.00;78.40;;;;;;5089300;28;20123;-66
2023/09/28 08:09:23;;;;;;;31.40;6.82;;;17.00;78.30;;;;;;5083090;28;20116;-66
2023/09/28 08:11:50;;;;;;;30.48;6.07;;;17.10;78.30;;;;;;5088609;28;20039;-66
2023/09/28 08:14:16;;;;;;;28.05;6.88;;;17.20;78.10;;;;;;5068800;28;20044;-65
2023/09/28 08:16:48;;;;;;;27.52;6.38;;;17.20;78.00;;;;;;5074991;28;20048;-66
2023/09/28 08:19:13;;;;;;;36.50;7.47;;;17.20;77.70;;;;;;5069951;28;20063;-66
2023/09/28 08:21:40;;;;;;;30.25;6.10;;;17.20;77.10;;;;;;5076542;28;20040;-66
2023/09/28 08:24:08;;;;;;;26.23;6.20;;;17.40;77.00;;;;;;5089079;28;20047;-66
2023/09/28 08:26:34;;;;;;;30.13;6.10;;;17.40;76.50;;;;;;5088720;28;20048;-66
2023/09/28 08:29:01;;;;;;;28.33;5.25;;;17.50;76.30;;;;;;5070610;28;20504;-65
2023/09/28 08:31:27;;;;;;;26.63;5.40;;;17.50;76.20;;;;;;5088593;28;20135;-65
2023/09/28 08:33:53;;;;;;;25.35;5.50;;;17.50;75.50;;;;;;5087960;28;20051;-65
2023/09/28 08:36:21;;;;;;;23.70;5.88;;;17.60;74.90;;;;;;5068620;28;20063;-66
2023/09/28 08:38:48;;;;;;;26.73;5.80;;;17.70;74.60;;;;;;5072562;28;20505;-65
2023/09/28 08:41:16;;;;;;;22.77;5.65;;;17.80;74.20;;;;;;5078846;28;20129;-65
2023/09/28 08:43:43;;;;;;;25.40;5.07;;;17.80;73.70;;;;;;5088317;28;20536;-66
2023/09/28 08:46:14;;;;;;;27.02;5.32;;;17.80;73.50;;;;;;5080099;28;20189;-66
2023/09/28 08:48:47;;;;;;;19.60;4.93;;;17.80;73.20;;;;;;5068411;28;20053;-65
2023/09/28 08:51:13;;;;;;;21.70;5.22;;;18.00;72.60;;;;;;5078968;28;20047;-66
2023/09/28 08:53:40;;;;;;;20.85;4.72;;;18.00;72.90;;;;;;5071104;28;20040;-66
2023/09/28 08:56:07;;;;;;;17.50;4.97;;;18.00;72.10;;;;;;5068179;28;20586;-66
2023/09/28 08:58:37;;;;;;;24.50;5.18;;;18.10;71.70;;;;;;5070864;28;20058;-65
2023/09/28 09:01:04;;;;;;;19.85;4.38;;;18.10;71.70;;;;;;5087426;28;20048;-66
2023/09/28 09:03:32;;;;;;;19.45;4.57;;;18.10;71.70;;;;;;5083743;28;20389;-66
2023/09/28 09:05:58;;;;;;;17.85;4.10;;;18.10;71.60;;;;;;5066637;28;20497;-65
2023/09/28 09:08:26;;;;;;;23.65;4.80;;;18.10;71.80;;;;;;5070647;28;20048;-66
2023/09/28 09:10:52;;;;;;;27.80;5.53;;;18.10;71.40;;;;;;5087065;28;20036;-66
2023/09/28 09:13:21;;;;;;;19.73;5.00;;;18.10;71.30;;;;;;5075675;28;20044;-66
2023/09/28 09:15:49;;;;;;;20.10;5.40;;;18.10;71.80;;;;;;5068590;28;20076;-65
2023/09/28 09:18:24;;;;;;;27.02;6.10;;;18.10;72.10;;;;;;5067678;28;20054;-66
2023/09/28 09:20:50;;;;;;;28.50;5.35;;;18.00;72.90;;;;;;5083010;28;20059;-66
2023/09/28 09:23:17;;;;;;;30.63;5.95;;;18.00;73.20;;;;;;5088200;28;20406;-66
2023/09/28 09:25:53;;;;;;;25.05;5.72;;;18.00;73.30;;;;;;5088599;28;20162;-65
2023/09/28 09:28:33;;;;;;;23.77;5.82;;;18.00;73.50;;;;;;5088251;28;20052;-66
2023/09/28 09:31:00;;;;;;;25.48;5.28;;;18.00;73.60;;;;;;5091016;28;20059;-65
2023/09/28 09:33:26;;;;;;;24.02;5.15;;;18.00;73.40;;;;;;5092313;28;20048;-66
2023/09/28 09:35:52;;;;;;;19.67;4.90;;;18.00;73.00;;;;;;5091397;28;20048;-65
2023/09/28 09:38:28;;;;;;;23.20;4.85;;;18.00;72.80;;;;;;5091241;28;20052;-66
2023/09/28 09:41:07;;;;;;;21.33;5.55;;;18.10;72.10;;;;;;5079125;28;20381;-66
2023/09/28 09:43:36;;;;;;;27.05;6.10;;;18.10;72.70;;;;;;5091631;28;20048;-66
2023/09/28 09:46:11;;;;;;;30.80;6.28;;;18.10;73.10;;;;;;5084225;28;20048;-66
2023/09/28 09:48:37;;;;;;;31.10;6.68;;;18.10;73.30;;;;;;5071372;28;20060;-66
2023/09/28 09:51:07;;;;;;;28.38;6.72;;;18.10;73.80;;;;;;5071403;28;20113;-65
2023/09/28 09:53:34;;;;;;;28.98;6.20;;;18.20;74.10;;;;;;5071266;28;20398;-66
2023/09/28 09:56:02;;;;;;;28.90;5.93;;;18.20;74.10;;;;;;5081393;28;20507;-65
2023/09/28 09:58:35;;;;;;;21.58;5.47;;;18.20;73.40;;;;;;5091363;28;20055;-66
2023/09/28 10:01:04;;;;;;;25.58;5.70;;;18.20;73.00;;;;;;5091587;28;20178;-65
2023/09/28 10:03:32;;;;;;;17.50;4.78;;;18.20;72.80;;;;;;5091170;28;20511;-66
2023/09/28 10:06:01;;;;;;;30.60;5.78;;;18.20;72.90;;;;;;5079092;28;20076;-65
2023/09/28 10:08:28;;;;;;;24.50;5.43;;;18.20;72.60;;;;;;5081726;28;20044;-66
2023/09/28 10:10:54;;;;;;;27.25;5.57;;;18.20;72.30;;;;;;5084292;28;20420;-66
2023/09/28 10:13:20;;;;;;;26.25;5.03;;;18.30;72.50;;;;;;5084076;28;20083;-66
2023/09/28 10:15:46;;;;;;;26.27;5.38;;;18.30;72.60;;;;;;5090917;28;20075;-66
2023/09/28 10:18:13;;;;;;;22.13;4.97;;;18.30;72.40;;;;;;5071835;28;20040;-65
2023/09/28 10:20:39;;;;;;;21.58;4.60;;;18.30;72.20;;;;;;5070449;28;20052;-65
2023/09/28 10:23:16;;;;;;;17.60;3.88;;;18.30;72.00;;;;;;5070908;28;20041;-66
2023/09/28 10:26:13;;;;;;;18.05;4.68;;;18.30;71.40;;;;;;5071192;28;20051;-66
2023/09/28 10:29:01;;;;;;;21.08;4.30;;;18.30;70.60;;;;;;5082924;28;20110;-66
2023/09/28 10:31:31;;;;;;;22.63;4.22;;;18.30;71.80;;;;;;5082168;28;20048;-65
2023/09/28 10:34:02;;;;;;;21.42;4.65;;;18.30;71.60;;;;;;5083974;28;20040;-64
2023/09/28 10:36:28;;;;;;;20.73;4.90;;;18.30;71.80;;;;;;5070492;28;20116;-65
2023/09/28 10:39:17;;;;;;;20.77;4.65;;;18.30;71.40;;;;;;5072602;28;20405;-66
2023/09/28 10:41:49;;;;;;;20.65;4.57;;;18.20;71.50;;;;;;5090106;28;20051;-65
2023/09/28 10:44:18;;;;;;;18.77;4.80;;;18.20;71.60;;;;;;5090205;28;20083;-65
2023/09/28 10:46:47;;;;;;;23.02;4.95;;;18.20;71.60;;;;;;5077333;28;20053;-65
2023/09/28 10:49:15;;;;;;;21.70;4.57;;;18.20;71.50;;;;;;5076970;28;20063;-65
2023/09/28 10:51:41;;;;;;;22.10;5.05;;;18.20;71.60;;;;;;5090921;28;20508;-65
2023/09/28 10:54:08;;;;;;;25.40;4.93;;;18.10;71.90;;;;;;5090671;28;20052;-66
2023/09/28 10:56:34;;;;;;;22.38;5.00;;;18.10;72.10;;;;;;5090216;28;20052;-66
2023/09/28 10:59:02;;;;;;;22.35;4.90;;;18.10;72.20;;;;;;5090310;28;20044;-66
2023/09/28 11:01:28;;;;;;;21.20;4.80;;;18.20;72.30;;;;;;5089810;28;20040;-65
2023/09/28 11:03:54;;;;;;;24.85;5.13;;;18.20;72.30;;;;;;5091571;28;20047;-66
2023/09/28 11:06:21;;;;;;;19.98;5.38;;;18.20;72.80;;;;;;5095512;28;20040;-65
2023/09/28 11:08:49;;;;;;;29.00;6.22;;;18.20;73.30;;;;;;5088007;28;20044;-65
2023/09/28 11:11:17;;;;;;;24.27;5.63;;;18.20;73.50;;;;;;5070003;28;20086;-65
2023/09/28 11:13:43;;;;;;;26.45;5.72;;;18.20;73.90;;;;;;5085762;28;20056;-65
2023/09/28 11:16:11;;;;;;;24.63;5.93;;;18.20;73.90;;;;;;5089842;28;20053;-65
2023/09/28 11:18:38;;;;;;;24.50;5.10;;;18.20;73.70;;;;;;5090197;28;20047;-65
2023/09/28 11:21:04;;;;;;;21.05;5.00;;;18.20;73.80;;;;;;5089147;28;20058;-65
2023/09/28 11:23:30;;;;;;;26.27;5.45;;;18.10;74.00;;;;;;5090014;28;20532;-66
2023/09/28 11:25:58;;;;;;;24.85;5.38;;;18.20;74.00;;;;;;5090190;28;20052;-66
2023/09/28 11:28:24;;;;;;;27.65;5.70;;;18.20;73.80;;;;;;5089962;28;20044;-66
2023/09/28 11:31:09;;;;;;;24.83;5.20;;;18.10;73.60;;;;;;5089918;28;20051;-65
2023/09/28 11:33:38;;;;;;;24.17;4.88;;;18.10;72.90;;;;;;5088019;28;20408;-65
2023/09/28 11:36:06;;;;;;;25.20;4.78;;;18.10;73.20;;;;;;5071649;28;20036;-65
2023/09/28 11:38:32;;;;;;;23.13;5.30;;;18.00;73.40;;;;;;5072147;28;20389;-65
2023/09/28 11:40:58;;;;;;;27.50;5.82;;;18.00;73.40;;;;;;5078806;28;20048;-65
2023/09/28 11:43:24;;;;;;;25.33;5.90;;;18.00;73.80;;;;;;5089219;28;20039;-66
2023/09/28 11:45:51;;;;;;;26.38;5.68;;;18.00;73.80;;;;;;5083491;28;20053;-65
2023/09/28 11:48:19;;;;;;;30.35;5.07;;;18.10;73.80;;;;;;5088529;28;20109;-65
2023/09/28 11:50:45;;;;;;;21.30;5.63;;;18.10;73.30;;;;;;5089823;28;20063;-65
2023/09/28 11:53:11;;;;;;;18.98;5.03;;;18.10;73.30;;;;;;5088721;28;20070;-65
2023/09/28 11:55:40;;;;;;;24.92;5.38;;;18.10;73.20;;;;;;5089437;28;20543;-65
2023/09/28 11:58:10;;;;;;;21.50;5.65;;;18.20;72.90;;;;;;5075313;28;20044;-64
2023/09/28 12:00:37;;;;;;;19.73;5.22;;;18.30;73.00;;;;;;5076700;28;20047;-65
2023/09/28 12:03:03;;;;;;;23.80;5.40;;;18.30;73.40;;;;;;5088267;28;20492;-65
2023/09/28 12:05:31;;;;;;;21.92;5.47;;;18.40;72.40;;;;;;5078216;28;20089;-65
2023/09/28 12:07:58;;;;;;;21.92;5.25;;;18.50;72.20;;;;;;5069126;28;20044;-66
2023/09/28 12:10:24;;;;;;;20.30;5.32;;;18.50;72.20;;;;;;5084526;28;20048;-65
2023/09/28 12:12:49;;;;;;;23.15;5.25;;;18.50;71.90;;;;;;5082490;28;20097;-65
2023/09/28 12:15:16;;;;;;;23.60;5.57;;;18.50;71.80;;;;;;5089467;28;20055;-65
2023/09/28 12:17:43;;;;;;;25.05;5.35;;;18.60;71.10;;;;;;5083340;28;20423;-65
2023/09/28 12:20:12;;;;;;;18.30;4.80;;;18.50;71.00;;;;;;5080013;28;20072;-65
2023/09/28 12:22:39;;;;;;;25.35;5.22;;;18.50;71.00;;;;;;5083819;28;20044;-66
2023/09/28 12:25:05;;;;;;;20.80;5.20;;;18.40;71.10;;;;;;5088619;28;20148;-65
2023/09/28 12:27:35;;;;;;;22.83;5.40;;;18.40;71.10;;;;;;5088717;28;20090;-66
2023/09/28 12:30:02;;;;;;;20.60;5.90;;;18.40;71.20;;;;;;5087718;28;20048;-65
2023/09/28 12:32:29;;;;;;;22.80;5.47;;;18.40;71.40;;;;;;5088611;28;20223;-65
2023/09/28 12:34:57;;;;;;;22.50;5.63;;;18.40;71.40;;;;;;5086392;28;20052;-66
2023/09/28 12:37:23;;;;;;;19.40;5.30;;;18.30;71.10;;;;;;5074850;28;20044;-64
2023/09/28 12:39:53;;;;;;;27.85;5.78;;;18.30;71.20;;;;;;5079538;28;20547;-65